Time;durP1;ratioP1;P1;durP2;ratioP2;P2;SDS_P1;SDS_P2;PMS_P1;PMS_P2;Temp;Humidity;BMP_temperature;BMP_pressure;BME280_temperature;BME280_humidity;BME280_pressure;Samples;Min_cycle;Max_cycle;Signal;HPM_P1;HPM_P2
2022/11/08 00:01:50;;;;;;;0.63;0.50;;;13.50;86.90;;;;;;4973882;28;20067;-74
2022/11/08 00:04:18;;;;;;;0.95;0.55;;;13.50;86.90;;;;;;4973788;28;20077;-75
2022/11/08 00:14:51;;;;;;;1.55;0.70;;;13.30;87.00;;;;;;4956801;28;21212;-75
2022/11/08 00:17:18;;;;;;;1.25;0.60;;;13.30;87.00;;;;;;4955959;28;20466;-75
2022/11/08 00:19:44;;;;;;;1.88;0.70;;;13.30;87.10;;;;;;4973638;28;20045;-74
2022/11/08 00:22:11;;;;;;;0.88;0.50;;;13.30;87.10;;;;;;4973558;28;20130;-74
2022/11/08 00:24:37;;;;;;;1.13;0.70;;;13.30;87.20;;;;;;4973472;28;20053;-74
2022/11/08 00:27:05;;;;;;;0.55;0.45;;;13.20;87.10;;;;;;4973459;28;20078;-74
2022/11/08 00:29:34;;;;;;;1.42;0.80;;;13.20;87.20;;;;;;4973371;28;20039;-74
2022/11/08 00:32:02;;;;;;;1.77;0.90;;;13.20;87.20;;;;;;4973648;28;20047;-75
2022/11/08 00:34:28;;;;;;;0.77;0.50;;;13.20;87.20;;;;;;4973693;28;20046;-74
2022/11/08 00:36:54;;;;;;;1.23;0.60;;;13.20;87.20;;;;;;4972423;28;20117;-75
2022/11/08 00:39:19;;;;;;;1.20;0.60;;;13.10;87.30;;;;;;4973646;28;20378;-75
2022/11/08 00:41:45;;;;;;;1.15;0.50;;;13.10;87.30;;;;;;4974019;28;20038;-75
2022/11/08 00:44:11;;;;;;;2.08;0.50;;;13.00;87.30;;;;;;4972053;28;20035;-74
2022/11/08 00:46:37;;;;;;;1.45;0.55;;;13.00;87.50;;;;;;4973249;28;20391;-74
2022/11/08 00:49:04;;;;;;;1.10;0.50;;;12.90;87.50;;;;;;4973603;28;20125;-75
2022/11/08 00:51:30;;;;;;;0.95;0.65;;;12.90;87.60;;;;;;4973145;28;20047;-75
2022/11/08 00:53:56;;;;;;;1.58;0.60;;;12.90;87.70;;;;;;4972885;28;20046;-75
2022/11/08 00:56:23;;;;;;;0.93;0.60;;;12.90;87.70;;;;;;4955873;28;20440;-75
2022/11/08 00:58:48;;;;;;;1.15;0.70;;;12.80;87.70;;;;;;4956044;28;20043;-75
2022/11/08 01:01:17;;;;;;;0.88;0.43;;;12.90;87.80;;;;;;4973186;28;20058;-75
2022/11/08 01:03:44;;;;;;;1.33;0.60;;;12.80;87.80;;;;;;4939598;28;20031;-75
2022/11/08 01:06:12;;;;;;;0.77;0.60;;;12.80;87.80;;;;;;4972590;28;20039;-75
2022/11/08 01:08:38;;;;;;;1.05;0.50;;;12.70;87.80;;;;;;4973262;28;20725;-75
2022/11/08 01:11:07;;;;;;;1.35;0.70;;;12.80;87.90;;;;;;4973250;28;20038;-75
2022/11/08 01:13:33;;;;;;;1.33;0.65;;;12.70;87.90;;;;;;4968335;28;20101;-75
2022/11/08 01:16:07;;;;;;;0.95;0.40;;;12.70;88.00;;;;;;4972841;28;20117;-74
2022/11/08 01:18:33;;;;;;;0.80;0.80;;;12.70;88.10;;;;;;4955594;28;20046;-74
2022/11/08 01:20:59;;;;;;;1.17;0.55;;;12.60;88.00;;;;;;4972482;28;20039;-75
2022/11/08 01:23:25;;;;;;;1.00;0.40;;;12.60;88.00;;;;;;4972513;28;20050;-75
2022/11/08 01:25:50;;;;;;;0.93;0.50;;;12.60;88.10;;;;;;4972658;28;20043;-75
2022/11/08 01:28:16;;;;;;;1.00;0.60;;;12.60;88.10;;;;;;4955401;28;20138;-74
2022/11/08 01:30:43;;;;;;;2.70;0.65;;;12.60;88.10;;;;;;4955124;28;20045;-75
2022/11/08 01:33:10;;;;;;;1.33;0.70;;;12.50;88.20;;;;;;4955205;28;20101;-75
2022/11/08 01:35:36;;;;;;;1.17;0.60;;;12.50;88.20;;;;;;4972562;28;20126;-74
2022/11/08 01:38:02;;;;;;;0.93;0.57;;;12.50;88.30;;;;;;4939435;28;20031;-75
2022/11/08 01:40:29;;;;;;;1.55;0.77;;;12.50;88.30;;;;;;4972715;28;20034;-74
2022/11/08 01:42:55;;;;;;;1.45;0.60;;;12.50;88.30;;;;;;4972792;28;20486;-75
2022/11/08 01:45:53;;;;;;;1.65;0.68;;;12.40;88.30;;;;;;4972506;28;20027;-75
2022/11/08 01:48:19;;;;;;;1.60;0.77;;;12.50;88.40;;;;;;4971980;28;20042;-75
2022/11/08 01:50:45;;;;;;;1.50;0.77;;;12.40;88.30;;;;;;4972083;28;20031;-75
2022/11/08 01:53:11;;;;;;;1.02;0.45;;;12.40;88.30;;;;;;4953603;28;20031;-75
2022/11/08 01:55:37;;;;;;;1.80;0.73;;;12.40;88.30;;;;;;4972159;28;20058;-75
2022/11/08 01:58:09;;;;;;;0.63;0.55;;;12.40;88.40;;;;;;4955137;28;20067;-75
2022/11/08 02:00:37;;;;;;;1.50;0.75;;;12.40;88.30;;;;;;4955050;28;20034;-75
2022/11/08 02:03:06;;;;;;;1.33;0.80;;;12.40;88.40;;;;;;4971807;28;20114;-75
2022/11/08 02:05:32;;;;;;;0.65;0.60;;;12.40;88.30;;;;;;4923355;28;20039;-75
2022/11/08 02:08:10;;;;;;;0.98;0.63;;;12.40;88.40;;;;;;4971971;28;20093;-75
2022/11/08 02:10:39;;;;;;;2.25;0.82;;;12.40;88.40;;;;;;4938707;28;20046;-75
2022/11/08 02:13:10;;;;;;;1.38;0.70;;;12.40;88.40;;;;;;4972559;28;20133;-75
2022/11/08 02:15:36;;;;;;;0.73;0.60;;;12.40;88.40;;;;;;4971896;28;20098;-75
2022/11/08 02:18:02;;;;;;;1.05;0.70;;;12.40;88.30;;;;;;4972079;28;20039;-75
2022/11/08 02:20:28;;;;;;;0.80;0.70;;;12.40;88.40;;;;;;4972026;28;20043;-75
2022/11/08 02:23:09;;;;;;;1.52;0.65;;;12.40;88.40;;;;;;4966985;28;20387;-75
2022/11/08 02:25:34;;;;;;;1.90;0.88;;;12.40;88.40;;;;;;4968104;28;20049;-75
2022/11/08 02:28:00;;;;;;;1.58;0.50;;;12.40;88.40;;;;;;4971650;28;20039;-75
2022/11/08 02:30:34;;;;;;;1.30;0.80;;;12.40;88.40;;;;;;4972120;28;20146;-75
2022/11/08 02:33:12;;;;;;;1.00;0.55;;;12.40;88.40;;;;;;4971922;28;20042;-75
2022/11/08 02:35:38;;;;;;;0.93;0.50;;;12.40;88.30;;;;;;4972330;28;20050;-75
2022/11/08 02:38:04;;;;;;;1.08;0.60;;;12.40;88.30;;;;;;4972093;28;20043;-75
2022/11/08 02:40:30;;;;;;;1.75;0.50;;;12.40;88.40;;;;;;4968288;28;20042;-74
2022/11/08 02:42:55;;;;;;;2.03;0.70;;;12.40;88.40;;;;;;4954420;28;20107;-75
2022/11/08 02:45:21;;;;;;;0.43;0.40;;;12.30;88.40;;;;;;4971767;28;20416;-75
2022/11/08 02:47:47;;;;;;;0.40;0.40;;;12.40;88.50;;;;;;4954824;28;20477;-75
2022/11/08 02:50:12;;;;;;;0.43;0.43;;;12.30;88.40;;;;;;4971645;28;20038;-75
2022/11/08 02:52:38;;;;;;;0.68;0.55;;;12.30;88.40;;;;;;4953837;28;20407;-75
2022/11/08 02:55:04;;;;;;;1.13;0.68;;;12.30;88.40;;;;;;4954550;28;20435;-75
2022/11/08 02:57:31;;;;;;;0.75;0.52;;;12.40;88.40;;;;;;4971569;28;20094;-75
2022/11/08 02:59:57;;;;;;;0.70;0.52;;;12.30;88.40;;;;;;4973127;28;20035;-75
2022/11/08 03:02:23;;;;;;;1.30;0.50;;;12.30;88.50;;;;;;4974798;28;20049;-75
2022/11/08 03:04:48;;;;;;;0.75;0.40;;;12.30;88.60;;;;;;4974535;28;20043;-75
2022/11/08 03:07:14;;;;;;;0.43;0.43;;;12.30;88.60;;;;;;4957176;28;20137;-75
2022/11/08 03:09:40;;;;;;;0.85;0.50;;;12.30;88.60;;;;;;4975057;28;20395;-75
2022/11/08 03:12:06;;;;;;;0.77;0.40;;;12.30;88.60;;;;;;4974629;28;20104;-75
2022/11/08 03:14:32;;;;;;;0.45;0.40;;;12.20;88.60;;;;;;4974667;28;20034;-75
2022/11/08 03:16:58;;;;;;;0.28;0.25;;;12.20;88.60;;;;;;4974845;28;20038;-75
2022/11/08 03:19:24;;;;;;;0.20;0.20;;;12.10;88.70;;;;;;4974881;28;20134;-75
2022/11/08 03:21:49;;;;;;;1.13;0.40;;;12.00;88.80;;;;;;4974780;28;20109;-75
2022/11/08 03:24:15;;;;;;;0.57;0.40;;;12.10;89.10;;;;;;4975003;28;20042;-75
2022/11/08 03:26:41;;;;;;;0.70;0.60;;;12.10;89.10;;;;;;4974305;28;20039;-75
2022/11/08 03:29:07;;;;;;;1.45;0.43;;;12.10;89.10;;;;;;4974738;28;20039;-75
2022/11/08 03:31:32;;;;;;;0.98;0.47;;;12.20;88.90;;;;;;4957820;28;20062;-75
2022/11/08 03:33:58;;;;;;;0.52;0.43;;;12.20;88.70;;;;;;4957177;28;20038;-75
2022/11/08 03:36:25;;;;;;;0.30;0.30;;;12.20;88.60;;;;;;4974251;28;20130;-75
2022/11/08 03:38:51;;;;;;;0.65;0.40;;;12.20;88.70;;;;;;4957303;28;20041;-75
2022/11/08 03:41:16;;;;;;;0.75;0.40;;;12.30;88.70;;;;;;4956975;28;20042;-75
2022/11/08 03:43:43;;;;;;;0.40;0.40;;;12.10;88.70;;;;;;4940776;28;20133;-75
2022/11/08 03:46:08;;;;;;;0.32;0.30;;;12.10;88.80;;;;;;4955929;28;20054;-75
2022/11/08 03:48:34;;;;;;;0.30;0.30;;;12.00;88.90;;;;;;4974038;28;20042;-75
2022/11/08 03:51:00;;;;;;;0.30;0.30;;;11.90;89.10;;;;;;4973813;28;20049;-75
2022/11/08 03:53:25;;;;;;;0.50;0.38;;;11.80;89.20;;;;;;4973921;28;20042;-75
2022/11/08 03:55:51;;;;;;;0.40;0.30;;;11.80;89.30;;;;;;4956189;28;20163;-75
2022/11/08 03:58:17;;;;;;;1.40;0.40;;;11.70;89.50;;;;;;4973845;28;20046;-75
2022/11/08 04:00:42;;;;;;;0.95;0.38;;;11.70;89.60;;;;;;4956828;28;20046;-75
2022/11/08 04:03:08;;;;;;;0.45;0.25;;;11.70;89.70;;;;;;4973970;28;20435;-75
2022/11/08 04:05:35;;;;;;;0.20;0.20;;;11.60;89.70;;;;;;4974052;28;20041;-75
2022/11/08 04:08:03;;;;;;;0.50;0.22;;;11.60;89.80;;;;;;4974206;28;20045;-75
2022/11/08 04:10:28;;;;;;;0.20;0.20;;;11.50;89.80;;;;;;4973469;28;20034;-75
2022/11/08 04:15:41;;;;;;;0.63;0.35;;;11.40;89.90;;;;;;4971941;28;20058;-75
2022/11/08 04:23:33;;;;;;;0.25;0.20;;;11.40;90.00;;;;;;4971580;28;20066;-74
2022/11/08 04:26:02;;;;;;;0.85;0.20;;;11.40;90.00;;;;;;4956377;28;20042;-75
2022/11/08 04:28:31;;;;;;;0.20;0.20;;;11.20;90.00;;;;;;4956124;28;20053;-75
2022/11/08 04:31:01;;;;;;;1.35;0.30;;;11.30;90.00;;;;;;4973541;28;20046;-75
2022/11/08 04:33:27;;;;;;;0.10;0.10;;;11.20;90.00;;;;;;4954296;28;20038;-75
2022/11/08 04:35:53;;;;;;;0.70;0.30;;;11.20;90.10;;;;;;4940058;28;20475;-75
2022/11/08 04:38:20;;;;;;;0.20;0.20;;;11.20;90.10;;;;;;4955893;28;20070;-75
2022/11/08 04:40:45;;;;;;;0.50;0.22;;;11.20;90.10;;;;;;4940401;28;20403;-75
2022/11/08 04:43:12;;;;;;;0.22;0.20;;;11.10;90.10;;;;;;4973334;28;20045;-75
2022/11/08 04:45:38;;;;;;;0.63;0.20;;;11.10;90.10;;;;;;4954342;28;20054;-75
2022/11/08 04:48:04;;;;;;;0.40;0.40;;;11.10;90.10;;;;;;4955955;28;20047;-75
2022/11/08 04:50:30;;;;;;;1.15;0.30;;;11.10;90.10;;;;;;4956080;28;20058;-75
2022/11/08 04:52:56;;;;;;;0.20;0.20;;;11.10;90.00;;;;;;4973645;28;20047;-75
2022/11/08 04:55:22;;;;;;;0.38;0.30;;;11.10;90.10;;;;;;4939769;28;20054;-75
2022/11/08 04:57:48;;;;;;;0.50;0.22;;;11.10;90.00;;;;;;4939676;28;20038;-75
2022/11/08 05:00:15;;;;;;;0.30;0.30;;;11.10;90.00;;;;;;4956144;28;20035;-75
2022/11/08 05:02:41;;;;;;;0.50;0.30;;;11.10;90.00;;;;;;4973685;28;20473;-75
2022/11/08 05:05:07;;;;;;;0.30;0.30;;;11.10;89.90;;;;;;4955804;28;20093;-74
2022/11/08 05:07:33;;;;;;;0.10;0.10;;;11.10;89.90;;;;;;4938462;28;20047;-75
2022/11/08 05:09:59;;;;;;;0.70;0.20;;;11.10;89.90;;;;;;4973464;28;20031;-75
2022/11/08 05:12:25;;;;;;;0.60;0.30;;;11.10;89.80;;;;;;4973535;28;20117;-75
2022/11/08 05:14:50;;;;;;;0.22;0.22;;;11.10;89.80;;;;;;4973302;28;20109;-75
2022/11/08 05:17:16;;;;;;;0.20;0.20;;;11.10;89.90;;;;;;4972896;28;20053;-74
2022/11/08 05:25:07;;;;;;;0.20;0.20;;;11.10;89.80;;;;;;4955228;28;20065;-75
2022/11/08 05:27:34;;;;;;;0.10;0.10;;;11.00;89.70;;;;;;4939537;28;20093;-75
2022/11/08 05:30:00;;;;;;;0.20;0.20;;;11.00;89.70;;;;;;4973035;28;20042;-75
2022/11/08 05:32:25;;;;;;;0.20;0.20;;;11.10;89.70;;;;;;4972577;28;20400;-75
2022/11/08 05:34:51;;;;;;;0.60;0.30;;;11.00;89.70;;;;;;4972529;28;20043;-75
2022/11/08 05:37:17;;;;;;;0.30;0.22;;;11.10;89.80;;;;;;4955297;28;20494;-74
2022/11/08 05:39:42;;;;;;;0.10;0.10;;;11.00;89.80;;;;;;4972814;28;20046;-75
2022/11/08 05:42:08;;;;;;;0.13;0.13;;;10.90;89.70;;;;;;4972438;28;20109;-75
2022/11/08 05:44:34;;;;;;;0.20;0.20;;;11.00;89.80;;;;;;4954572;28;20047;-75
2022/11/08 05:47:00;;;;;;;0.60;0.25;;;11.00;90.10;;;;;;4972851;28;20039;-75
2022/11/08 05:49:26;;;;;;;0.30;0.30;;;11.00;89.80;;;;;;4972931;28;20089;-75
2022/11/08 05:51:51;;;;;;;0.52;0.20;;;10.90;89.80;;;;;;4953622;28;20053;-75
2022/11/08 05:54:17;;;;;;;0.40;0.20;;;11.00;89.70;;;;;;4973130;28;20107;-75
2022/11/08 05:56:43;;;;;;;0.30;0.20;;;11.00;89.50;;;;;;4972730;28;20042;-75
2022/11/08 05:59:11;;;;;;;0.22;0.22;;;11.00;89.40;;;;;;4955133;28;20046;-75
2022/11/08 06:01:37;;;;;;;0.60;0.28;;;11.00;89.50;;;;;;4972311;28;20086;-75
2022/11/08 06:04:03;;;;;;;0.25;0.20;;;11.00;89.50;;;;;;4972370;28;20043;-75
2022/11/08 06:06:29;;;;;;;0.40;0.30;;;10.90;89.60;;;;;;4972309;28;20031;-75
2022/11/08 06:08:55;;;;;;;0.20;0.20;;;10.90;89.60;;;;;;4955100;28;20101;-75
2022/11/08 06:11:23;;;;;;;0.30;0.28;;;10.90;89.70;;;;;;4972537;28;20398;-75
2022/11/08 06:13:49;;;;;;;0.80;0.30;;;10.90;89.70;;;;;;4953999;28;20076;-75
2022/11/08 06:16:16;;;;;;;0.10;0.10;;;10.90;89.70;;;;;;4955011;28;20129;-76
2022/11/08 06:18:42;;;;;;;0.20;0.20;;;10.80;89.70;;;;;;4939214;28;20103;-77
2022/11/08 06:21:12;;;;;;;0.20;0.20;;;10.80;89.80;;;;;;4958956;28;20035;-75
2022/11/08 06:23:38;;;;;;;0.20;0.20;;;10.80;89.90;;;;;;4983121;28;20046;-75
2022/11/08 06:26:04;;;;;;;0.20;0.20;;;10.80;89.80;;;;;;4982439;28;20414;-75
2022/11/08 06:28:30;;;;;;;0.52;0.30;;;10.80;89.80;;;;;;4934123;28;20480;-75
2022/11/08 06:31:00;;;;;;;0.28;0.28;;;10.80;89.80;;;;;;4964195;28;20114;-75
2022/11/08 06:33:26;;;;;;;1.33;0.38;;;10.80;89.70;;;;;;4965310;28;20055;-75
2022/11/08 06:35:52;;;;;;;1.27;0.63;;;10.90;89.60;;;;;;4967739;28;20054;-75
2022/11/08 06:38:18;;;;;;;0.28;0.28;;;10.90;89.50;;;;;;4985606;28;20043;-76
2022/11/08 06:40:43;;;;;;;0.85;0.30;;;10.90;89.50;;;;;;4985604;28;20168;-76
2022/11/08 06:43:11;;;;;;;0.28;0.28;;;10.90;89.50;;;;;;4987068;28;20050;-76
2022/11/08 06:45:37;;;;;;;1.27;0.50;;;10.90;89.30;;;;;;4989059;28;20035;-76
2022/11/08 06:48:05;;;;;;;0.38;0.20;;;11.00;89.20;;;;;;4970019;28;20031;-75
2022/11/08 06:50:33;;;;;;;0.22;0.22;;;11.00;89.20;;;;;;4987834;28;20039;-75
2022/11/08 06:53:00;;;;;;;0.25;0.25;;;10.90;89.20;;;;;;4989355;28;20031;-76
2022/11/08 06:55:27;;;;;;;0.35;0.35;;;11.00;89.20;;;;;;4953476;28;20443;-76
2022/11/08 06:57:53;;;;;;;0.55;0.38;;;11.00;89.30;;;;;;4970644;28;20058;-76
2022/11/08 07:00:20;;;;;;;0.38;0.30;;;11.10;89.30;;;;;;4988635;28;20038;-76
2022/11/08 07:02:51;;;;;;;0.20;0.20;;;10.90;89.10;;;;;;4956114;28;20174;-76
2022/11/08 07:05:17;;;;;;;0.30;0.30;;;11.00;89.20;;;;;;4987976;28;20072;-76
2022/11/08 07:07:43;;;;;;;0.43;0.32;;;11.00;89.10;;;;;;4971281;28;20115;-75
2022/11/08 07:10:09;;;;;;;0.80;0.30;;;11.00;89.10;;;;;;4955241;28;20078;-76
2022/11/08 07:12:35;;;;;;;0.30;0.30;;;11.00;89.10;;;;;;4988081;28;20050;-76
2022/11/08 07:15:00;;;;;;;0.73;0.30;;;11.00;89.30;;;;;;4982815;28;20081;-76
2022/11/08 07:17:26;;;;;;;0.30;0.30;;;11.00;89.20;;;;;;4983574;28;20043;-76
2022/11/08 07:19:52;;;;;;;0.30;0.30;;;10.90;89.20;;;;;;4981965;28;20038;-76
2022/11/08 07:22:17;;;;;;;0.40;0.25;;;11.10;89.30;;;;;;4983019;28;20050;-77
2022/11/08 07:24:43;;;;;;;0.25;0.20;;;11.10;89.30;;;;;;4929651;28;20039;-75
2022/11/08 07:27:09;;;;;;;0.98;0.20;;;11.00;89.20;;;;;;4976567;28;20038;-75
2022/11/08 07:29:35;;;;;;;0.20;0.20;;;10.90;89.80;;;;;;4941853;28;20039;-75
2022/11/08 07:32:00;;;;;;;0.30;0.30;;;11.00;89.20;;;;;;4976231;28;20487;-75
2022/11/08 07:34:26;;;;;;;0.22;0.20;;;11.00;89.20;;;;;;4959236;28;20132;-75
2022/11/08 07:36:52;;;;;;;0.28;0.28;;;11.00;89.20;;;;;;4975448;28;20043;-75
2022/11/08 07:39:18;;;;;;;0.20;0.20;;;11.00;89.10;;;;;;4975026;28;20039;-75
2022/11/08 07:41:43;;;;;;;0.30;0.30;;;11.00;89.10;;;;;;4975311;28;20027;-75
2022/11/08 07:44:09;;;;;;;0.20;0.20;;;11.00;89.10;;;;;;4958180;28;20057;-75
2022/11/08 07:46:35;;;;;;;0.20;0.20;;;11.10;89.20;;;;;;4982413;28;20039;-75
2022/11/08 07:49:00;;;;;;;0.40;0.25;;;11.10;89.10;;;;;;4994166;28;20045;-75
2022/11/08 07:51:26;;;;;;;0.22;0.22;;;11.10;89.10;;;;;;4981826;28;20054;-74
2022/11/08 07:53:52;;;;;;;0.45;0.30;;;11.20;89.10;;;;;;4981483;28;20125;-75
2022/11/08 07:56:18;;;;;;;0.50;0.30;;;11.30;89.00;;;;;;4981622;28;20483;-75
2022/11/08 07:58:43;;;;;;;0.30;0.30;;;11.20;88.90;;;;;;4965216;28;20047;-74
2022/11/08 08:01:09;;;;;;;0.50;0.30;;;11.30;88.80;;;;;;4980033;28;20133;-75
2022/11/08 08:03:35;;;;;;;0.25;0.25;;;11.30;88.80;;;;;;4967776;28;20035;-77
2022/11/08 08:06:00;;;;;;;0.70;0.30;;;11.40;88.80;;;;;;4985536;28;20038;-76
2022/11/08 08:08:26;;;;;;;0.65;0.20;;;11.40;88.70;;;;;;4968513;28;20059;-76
2022/11/08 08:10:57;;;;;;;0.30;0.30;;;11.30;88.60;;;;;;4969961;28;20058;-77
2022/11/08 08:13:22;;;;;;;0.15;0.15;;;11.50;88.60;;;;;;4990590;28;20065;-77
2022/11/08 08:15:48;;;;;;;0.90;0.30;;;11.50;88.50;;;;;;4990159;28;20063;-77
2022/11/08 08:18:16;;;;;;;0.20;0.20;;;11.50;88.40;;;;;;4965260;28;20043;-78
2022/11/08 08:20:42;;;;;;;0.17;0.17;;;11.60;88.40;;;;;;4987867;28;20062;-78
2022/11/08 08:23:07;;;;;;;0.70;0.40;;;11.70;88.20;;;;;;4975099;28;20054;-78
2022/11/08 08:25:33;;;;;;;0.93;0.40;;;11.90;88.00;;;;;;4976198;28;20169;-77
2022/11/08 08:28:00;;;;;;;0.73;0.40;;;12.10;87.50;;;;;;4977983;28;20062;-78
2022/11/08 08:30:27;;;;;;;1.80;0.73;;;12.10;87.00;;;;;;4957202;28;20038;-78
2022/11/08 08:33:08;;;;;;;1.02;0.55;;;12.30;86.70;;;;;;4966469;28;20046;-77
2022/11/08 08:35:35;;;;;;;0.55;0.40;;;12.40;86.40;;;;;;4977694;28;20047;-76
2022/11/08 08:38:01;;;;;;;0.98;0.52;;;12.60;86.20;;;;;;4980414;28;20030;-77
2022/11/08 08:40:27;;;;;;;0.77;0.50;;;12.50;85.90;;;;;;4986112;28;20392;-77
2022/11/08 08:42:53;;;;;;;0.85;0.57;;;12.60;85.70;;;;;;4958316;28;20562;-77
2022/11/08 08:45:18;;;;;;;1.52;0.60;;;12.70;85.50;;;;;;4959426;28;20031;-77
2022/11/08 08:47:49;;;;;;;1.10;0.70;;;12.80;85.30;;;;;;4963909;28;20050;-77
2022/11/08 08:50:14;;;;;;;0.63;0.55;;;12.80;85.20;;;;;;4976377;28;20499;-77
2022/11/08 08:52:40;;;;;;;0.80;0.50;;;12.90;85.10;;;;;;4977987;28;20053;-77
2022/11/08 08:55:06;;;;;;;0.93;0.63;;;12.90;85.00;;;;;;4960256;28;20086;-77
2022/11/08 08:57:32;;;;;;;1.75;0.82;;;12.90;84.90;;;;;;4958845;28;20078;-77
2022/11/08 08:59:58;;;;;;;1.10;0.80;;;12.90;84.80;;;;;;4977272;28;20118;-77
2022/11/08 09:02:24;;;;;;;1.42;0.70;;;12.90;84.60;;;;;;4959105;28;20471;-78
2022/11/08 09:04:49;;;;;;;1.35;0.60;;;13.10;84.60;;;;;;4943902;28;20046;-78
2022/11/08 09:07:15;;;;;;;1.40;0.73;;;13.10;84.50;;;;;;4981050;28;20073;-77
2022/11/08 09:09:41;;;;;;;1.17;0.75;;;13.00;84.40;;;;;;4973798;28;20105;-77
2022/11/08 09:12:06;;;;;;;1.05;0.75;;;13.10;84.40;;;;;;4975200;28;20078;-77
2022/11/08 09:14:32;;;;;;;0.88;0.77;;;13.10;84.30;;;;;;4958761;28;20047;-77
2022/11/08 09:16:58;;;;;;;2.53;1.20;;;13.10;84.20;;;;;;4981087;28;20957;-78
2022/11/08 09:19:24;;;;;;;1.25;0.90;;;13.20;84.10;;;;;;4962393;28;20085;-77
2022/11/08 09:21:49;;;;;;;0.80;0.75;;;13.20;84.10;;;;;;4964594;28;20086;-78
2022/11/08 09:24:16;;;;;;;0.60;0.50;;;13.20;84.10;;;;;;4976144;28;20031;-77
2022/11/08 09:26:41;;;;;;;1.25;0.80;;;13.20;84.10;;;;;;4956615;28;20035;-76
2022/11/08 09:29:07;;;;;;;1.35;0.73;;;13.20;84.00;;;;;;4973968;28;20049;-78
2022/11/08 09:31:33;;;;;;;0.55;0.52;;;13.20;83.90;;;;;;4987222;28;20031;-77
2022/11/08 09:33:58;;;;;;;1.00;0.90;;;13.30;83.90;;;;;;4989406;28;20042;-78
2022/11/08 09:36:24;;;;;;;1.50;0.82;;;13.30;83.80;;;;;;4976422;28;20039;-77
2022/11/08 09:38:50;;;;;;;1.48;0.70;;;13.30;83.70;;;;;;4972107;28;20115;-77
2022/11/08 09:41:47;;;;;;;0.85;0.55;;;13.40;83.60;;;;;;4958562;28;20043;-77
2022/11/08 09:44:28;;;;;;;1.27;0.90;;;13.40;83.60;;;;;;4983573;28;20233;-78
2022/11/08 09:47:01;;;;;;;1.08;0.70;;;13.50;83.60;;;;;;4989070;28;20066;-77
2022/11/08 09:49:34;;;;;;;0.75;0.57;;;13.40;83.20;;;;;;4992094;28;20043;-77
2022/11/08 09:52:03;;;;;;;1.02;0.80;;;13.50;83.20;;;;;;4955843;28;20057;-76
2022/11/08 09:54:35;;;;;;;0.85;0.70;;;13.60;83.90;;;;;;4996293;28;20059;-78
2022/11/08 09:57:04;;;;;;;1.00;0.68;;;13.50;83.20;;;;;;4963428;28;20058;-77
2022/11/08 09:59:37;;;;;;;0.52;0.52;;;13.60;83.20;;;;;;4994224;28;20051;-77
2022/11/08 10:02:15;;;;;;;0.55;0.50;;;13.70;83.20;;;;;;4995159;28;20672;-77
2022/11/08 10:04:41;;;;;;;0.93;0.70;;;13.60;83.10;;;;;;4960848;28;20047;-78
2022/11/08 10:07:20;;;;;;;1.23;0.70;;;13.70;83.10;;;;;;4991241;28;20143;-77
2022/11/08 10:10:07;;;;;;;1.30;0.50;;;13.70;83.00;;;;;;4999080;28;20042;-77
2022/11/08 10:13:00;;;;;;;0.60;0.60;;;13.70;83.00;;;;;;4994786;28;20051;-78
2022/11/08 10:15:40;;;;;;;1.25;0.70;;;13.70;82.90;;;;;;4982204;28;20138;-77
2022/11/08 10:18:38;;;;;;;0.93;0.75;;;13.80;82.80;;;;;;4960032;28;20047;-78
2022/11/08 10:21:21;;;;;;;1.63;0.80;;;13.80;82.70;;;;;;4975799;28;20034;-77
2022/11/08 10:24:02;;;;;;;1.05;0.60;;;13.90;82.60;;;;;;4983764;28;20058;-77
2022/11/08 10:26:32;;;;;;;;;;;13.90;82.60;;;;;;4999507;28;20023;-78
2022/11/08 10:29:06;;;;;;;0.73;0.60;;;13.90;82.60;;;;;;4998488;28;19929;-77
2022/11/08 10:31:37;;;;;;;1.08;0.70;;;13.90;82.50;;;;;;4965455;28;20031;-78
2022/11/08 10:34:13;;;;;;;0.50;0.45;;;13.90;82.50;;;;;;4997996;28;20078;-78
2022/11/08 10:36:53;;;;;;;1.25;0.70;;;13.90;82.40;;;;;;4964651;28;20089;-77
2022/11/08 10:39:26;;;;;;;0.75;0.70;;;14.00;82.40;;;;;;4998185;28;20047;-78
2022/11/08 10:42:04;;;;;;;0.60;0.60;;;14.00;82.30;;;;;;4998326;28;20099;-77
2022/11/08 10:44:29;;;;;;;1.25;0.77;;;14.00;82.20;;;;;;4995153;28;20042;-78
2022/11/08 10:47:02;;;;;;;1.73;0.60;;;14.00;82.10;;;;;;4998405;28;20074;-78
2022/11/08 10:49:31;;;;;;;0.98;0.68;;;14.10;82.00;;;;;;4963609;28;20038;-78
2022/11/08 10:52:01;;;;;;;1.48;0.73;;;14.20;81.90;;;;;;4979403;28;20047;-77
2022/11/08 10:54:56;;;;;;;1.58;0.90;;;14.20;81.80;;;;;;4978769;28;20041;-78
2022/11/08 10:57:24;;;;;;;0.80;0.68;;;14.30;81.80;;;;;;4980770;28;20067;-78
2022/11/08 10:59:51;;;;;;;0.70;0.70;;;14.30;81.80;;;;;;4975340;28;20049;-78
2022/11/08 11:02:28;;;;;;;1.10;0.73;;;14.20;81.70;;;;;;4975682;28;20086;-78
2022/11/08 11:05:20;;;;;;;1.23;0.73;;;14.30;81.80;;;;;;4978512;28;20027;-78
2022/11/08 11:08:14;;;;;;;0.77;0.63;;;14.20;81.70;;;;;;4962508;28;20199;-78
2022/11/08 11:10:44;;;;;;;0.90;0.70;;;14.20;81.80;;;;;;4929642;28;20093;-78
2022/11/08 11:13:23;;;;;;;0.90;0.65;;;14.30;81.80;;;;;;4959500;28;20048;-78
2022/11/08 11:16:00;;;;;;;0.73;0.60;;;14.30;81.80;;;;;;4976213;28;20043;-78
2022/11/08 11:18:33;;;;;;;0.93;0.68;;;14.30;81.70;;;;;;4958915;28;20046;-78
2022/11/08 11:21:17;;;;;;;1.35;0.70;;;14.30;81.60;;;;;;4978655;28;20042;-78
2022/11/08 11:23:48;;;;;;;0.85;0.73;;;14.30;81.60;;;;;;4974807;28;20515;-78
2022/11/08 11:26:37;;;;;;;3.13;1.00;;;14.40;81.40;;;;;;4978713;28;20043;-78
2022/11/08 11:29:17;;;;;;;1.67;0.80;;;14.40;81.30;;;;;;4976482;28;20104;-78
2022/11/08 11:31:45;;;;;;;1.77;0.70;;;14.60;81.30;;;;;;4962841;28;20101;-78
2022/11/08 11:34:35;;;;;;;1.67;0.98;;;14.50;81.10;;;;;;4960240;28;20039;-77
2022/11/08 11:37:17;;;;;;;1.33;0.68;;;14.50;80.90;;;;;;4977924;28;20053;-78
2022/11/08 11:40:02;;;;;;;1.52;0.70;;;14.60;80.80;;;;;;4959200;28;20541;-78
2022/11/08 11:42:47;;;;;;;1.45;0.80;;;14.60;80.80;;;;;;4976846;28;20569;-78
2022/11/08 11:45:38;;;;;;;1.58;0.80;;;14.70;80.60;;;;;;4978888;28;20051;-78
2022/11/08 11:48:27;;;;;;;2.13;0.73;;;14.80;80.60;;;;;;4981003;28;20047;-78
2022/11/08 11:50:53;;;;;;;0.60;0.50;;;14.70;80.40;;;;;;4960685;28;20074;-78
2022/11/08 11:53:26;;;;;;;2.92;0.73;;;14.80;80.60;;;;;;4963754;28;20034;-77
2022/11/08 11:56:26;;;;;;;1.23;0.68;;;14.80;80.60;;;;;;4976832;28;20407;-78
2022/11/08 11:59:18;;;;;;;0.73;0.67;;;14.80;80.50;;;;;;4966495;28;20031;-78
2022/11/08 12:01:59;;;;;;;;;;;14.90;80.40;;;;;;4984132;28;20255;-78
2022/11/08 12:04:42;;;;;;;0.60;0.60;;;14.90;80.50;;;;;;4981367;28;19913;-78
2022/11/08 12:07:29;;;;;;;1.85;0.77;;;15.00;80.40;;;;;;4960761;28;20027;-77
2022/11/08 12:10:14;;;;;;;0.98;0.70;;;15.00;80.20;;;;;;4961745;28;20039;-78
2022/11/08 12:12:53;;;;;;;0.68;0.60;;;15.10;80.00;;;;;;4976610;28;20147;-78
2022/11/08 12:15:43;;;;;;;1.33;0.70;;;15.10;79.90;;;;;;4976691;28;20105;-77
2022/11/08 12:18:32;;;;;;;1.85;0.98;;;15.20;79.80;;;;;;4961245;28;20043;-77
2022/11/08 12:21:25;;;;;;;0.77;0.68;;;15.20;79.50;;;;;;4959806;28;20039;-78
2022/11/08 12:24:20;;;;;;;0.63;0.60;;;15.30;79.40;;;;;;4957705;28;20428;-77
2022/11/08 12:26:55;;;;;;;0.90;0.63;;;15.30;79.40;;;;;;4974895;28;20047;-77
2022/11/08 12:29:28;;;;;;;2.08;0.88;;;15.40;79.30;;;;;;4978843;28;20054;-82
2022/11/08 12:32:14;;;;;;;2.75;0.90;;;15.50;79.20;;;;;;4973760;28;20096;-77
2022/11/08 12:35:05;;;;;;;1.23;0.80;;;15.50;79.00;;;;;;4974109;28;20043;-79
2022/11/08 12:37:42;;;;;;;;;;;15.60;78.90;;;;;;4954255;28;20061;-77
2022/11/08 12:40:36;;;;;;;1.13;0.60;;;15.50;78.90;;;;;;4954715;28;20274;-77
2022/11/08 12:43:24;;;;;;;1.65;0.80;;;15.50;79.00;;;;;;4974337;28;20089;-78
2022/11/08 12:46:11;;;;;;;1.08;0.70;;;15.50;79.10;;;;;;4974168;28;20071;-77
2022/11/08 12:49:01;;;;;;;1.08;0.60;;;15.50;79.20;;;;;;4973749;28;20038;-77
2022/11/08 12:51:47;;;;;;;0.65;0.52;;;15.40;79.20;;;;;;4975519;28;20086;-79
2022/11/08 12:54:25;;;;;;;0.90;0.68;;;15.40;79.30;;;;;;4952749;28;20039;-78
2022/11/08 12:56:54;;;;;;;1.13;0.70;;;15.40;79.40;;;;;;4980625;28;20042;-79
2022/11/08 12:59:26;;;;;;;1.20;0.80;;;15.30;79.30;;;;;;4960829;28;20078;-79
2022/11/08 13:01:53;;;;;;;0.90;0.63;;;15.40;79.40;;;;;;4988511;28;20062;-78
2022/11/08 13:04:38;;;;;;;1.90;0.93;;;15.30;79.40;;;;;;4985928;28;20123;-79
2022/11/08 13:07:26;;;;;;;1.13;0.70;;;15.30;79.40;;;;;;4990839;28;20093;-79
2022/11/08 13:10:06;;;;;;;1.02;0.60;;;15.30;79.40;;;;;;4984610;28;20066;-78
2022/11/08 13:12:55;;;;;;;0.50;0.50;;;15.30;79.40;;;;;;4977604;28;20059;-78
2022/11/08 13:15:24;;;;;;;1.10;0.70;;;15.30;79.40;;;;;;4991656;28;20050;-79
2022/11/08 13:18:24;;;;;;;1.50;0.80;;;15.30;79.50;;;;;;4987812;28;20047;-79
2022/11/08 13:20:50;;;;;;;0.70;0.60;;;15.40;79.40;;;;;;4972410;28;20057;-79
2022/11/08 13:23:27;;;;;;;0.93;0.73;;;15.30;79.30;;;;;;4992824;28;20039;-77
2022/11/08 13:25:53;;;;;;;1.33;0.70;;;15.40;79.20;;;;;;4977600;28;20067;-79